RJTQ(METAR)
01/23 22:55
RJTQ 231355Z 28015KT CAVOK 06/M12 Q1017 RMK A3003=
戻る
トップページへ戻る
IMOC Co,.Ltd.